N750SF KSAV-KATL
Flight info
| Callsign | N750SF |
|---|---|
| Flight time | 0h 52m |
| Altitude | 6500 |
| Route | KSAV TO KATL VFR |
| Aircraft | SF50/L-V/N |
Departure
| Time | 2026-05-07 23:26 |
|---|---|
| Airport | Savannah Hilton Head International Airport (KSAV) |
Arrival
| Time | 2026-05-08 00:18 |
|---|---|
| Airport | Hartsfield Jackson Atlanta International Airport (KATL) |
| Time | Latitude | Longitude | Altitude | Speed | Heading |
|---|---|---|---|---|---|
| 2026-05-07 22:52 | 32.12192 | -81.19642 | 42 ft | 0 kts | 181° |
| 2026-05-07 23:10 | 32.12180 | -81.19644 | 42 ft | 5 kts | 217° |
| 2026-05-07 23:10 | 32.12176 | -81.19700 | 40 ft | 8 kts | 270° |
| 2026-05-07 23:10 | 32.12178 | -81.19761 | 40 ft | 7 kts | 307° |
| 2026-05-07 23:11 | 32.12210 | -81.19780 | 40 ft | 4 kts | 333° |
| 2026-05-07 23:11 | 32.12227 | -81.19791 | 41 ft | 1 kts | 331° |
| 2026-05-07 23:11 | 32.12233 | -81.19795 | 41 ft | 6 kts | 330° |
| 2026-05-07 23:11 | 32.12342 | -81.19813 | 44 ft | 23 kts | 359° |
| 2026-05-07 23:12 | 32.12472 | -81.19812 | 48 ft | 7 kts | 355° |
| 2026-05-07 23:12 | 32.12487 | -81.19813 | 48 ft | 8 kts | 2° |
| 2026-05-07 23:12 | 32.12603 | -81.19812 | 48 ft | 24 kts | 360° |
| 2026-05-07 23:12 | 32.12687 | -81.19741 | 51 ft | 18 kts | 89° |
| 2026-05-07 23:13 | 32.12691 | -81.19553 | 57 ft | 28 kts | 90° |
| 2026-05-07 23:13 | 32.12690 | -81.19352 | 58 ft | 19 kts | 90° |
| 2026-05-07 23:13 | 32.12690 | -81.19164 | 59 ft | 26 kts | 89° |
| 2026-05-07 23:13 | 32.12688 | -81.18963 | 60 ft | 22 kts | 90° |
| 2026-05-07 23:14 | 32.12726 | -81.18882 | 59 ft | 10 kts | 17° |
| 2026-05-07 23:14 | 32.12752 | -81.18877 | 59 ft | 0 kts | 360° |
| 2026-05-07 23:24 | 32.12797 | -81.18876 | 59 ft | 11 kts | 0° |
| 2026-05-07 23:25 | 32.12848 | -81.18911 | 56 ft | 10 kts | 271° |
| 2026-05-07 23:25 | 32.12848 | -81.18915 | 56 ft | 0 kts | 270° |
| 2026-05-07 23:25 | 32.12848 | -81.19036 | 58 ft | 50 kts | 269° |
| 2026-05-07 23:25 | 32.12851 | -81.19756 | 123 ft | 118 kts | 269° |
| 2026-05-07 23:26 | 32.12809 | -81.20884 | 280 ft | 152 kts | 265° |
| 2026-05-07 23:26 | 32.12820 | -81.22096 | 724 ft | 134 kts | 273° |
| 2026-05-07 23:26 | 32.12893 | -81.23190 | 983 ft | 133 kts | 268° |
| 2026-05-07 23:26 | 32.12943 | -81.24358 | 1309 ft | 149 kts | 271° |
| 2026-05-07 23:27 | 32.13268 | -81.26878 | 2007 ft | 185 kts | 303° |
| 2026-05-07 23:27 | 32.14400 | -81.27531 | 2834 ft | 178 kts | 336° |
| 2026-05-07 23:27 | 32.15528 | -81.27874 | 3798 ft | 162 kts | 332° |
| 2026-05-07 23:28 | 32.16578 | -81.28361 | 4430 ft | 161 kts | 321° |
| 2026-05-07 23:28 | 32.17483 | -81.29091 | 5080 ft | 155 kts | 311° |
| 2026-05-07 23:28 | 32.18208 | -81.30005 | 5665 ft | 151 kts | 298° |
| 2026-05-07 23:28 | 32.18766 | -81.31061 | 6233 ft | 152 kts | 295° |
| 2026-05-07 23:29 | 32.19335 | -81.32208 | 6415 ft | 176 kts | 295° |
| 2026-05-07 23:29 | 32.19882 | -81.33333 | 6427 ft | 196 kts | 295° |
| 2026-05-07 23:29 | 32.20258 | -81.34101 | 6425 ft | 206 kts | 296° |
| 2026-05-07 23:29 | 32.21003 | -81.35617 | 6423 ft | 219 kts | 296° |
| 2026-05-07 23:30 | 32.21777 | -81.37199 | 6422 ft | 226 kts | 296° |
| 2026-05-07 23:30 | 32.22577 | -81.38850 | 6426 ft | 241 kts | 296° |
| 2026-05-07 23:30 | 32.23427 | -81.40592 | 6424 ft | 253 kts | 296° |
| 2026-05-07 23:30 | 32.24279 | -81.42331 | 6423 ft | 226 kts | 296° |
| 2026-05-07 23:31 | 32.25013 | -81.43830 | 6409 ft | 199 kts | 295° |
| 2026-05-07 23:31 | 32.25669 | -81.45195 | 6404 ft | 183 kts | 295° |
| 2026-05-07 23:31 | 32.26282 | -81.46459 | 6405 ft | 173 kts | 295° |
| 2026-05-07 23:31 | 32.26876 | -81.47696 | 6406 ft | 185 kts | 295° |
| 2026-05-07 23:32 | 32.27579 | -81.49172 | 6424 ft | 222 kts | 296° |
| 2026-05-07 23:32 | 32.28388 | -81.50825 | 6428 ft | 241 kts | 296° |
| 2026-05-07 23:32 | 32.29239 | -81.52567 | 6425 ft | 242 kts | 296° |
| 2026-05-07 23:32 | 32.30063 | -81.54264 | 6423 ft | 235 kts | 296° |
| 2026-05-07 23:33 | 32.30868 | -81.55936 | 6418 ft | 233 kts | 296° |
| 2026-05-07 23:33 | 32.31657 | -81.57598 | 6423 ft | 232 kts | 296° |
| 2026-05-07 23:33 | 32.32464 | -81.59241 | 6424 ft | 231 kts | 297° |
| 2026-05-07 23:33 | 32.33263 | -81.60881 | 6427 ft | 230 kts | 296° |
| 2026-05-07 23:34 | 32.34051 | -81.62518 | 6426 ft | 230 kts | 296° |
| 2026-05-07 23:34 | 32.34843 | -81.64164 | 6422 ft | 230 kts | 296° |
| 2026-05-07 23:34 | 32.35627 | -81.65786 | 6425 ft | 230 kts | 296° |
| 2026-05-07 23:34 | 32.36419 | -81.67426 | 6423 ft | 230 kts | 296° |
| 2026-05-07 23:35 | 32.37220 | -81.69087 | 6423 ft | 229 kts | 296° |
| 2026-05-07 23:35 | 32.37999 | -81.70706 | 6422 ft | 229 kts | 296° |
| 2026-05-07 23:35 | 32.38796 | -81.72366 | 6423 ft | 229 kts | 296° |
| 2026-05-07 23:35 | 32.39585 | -81.74007 | 6422 ft | 229 kts | 296° |
| 2026-05-07 23:36 | 32.40358 | -81.75625 | 6424 ft | 229 kts | 296° |
| 2026-05-07 23:36 | 32.41154 | -81.77259 | 6424 ft | 229 kts | 296° |
| 2026-05-07 23:36 | 32.41944 | -81.78897 | 6425 ft | 229 kts | 296° |
| 2026-05-07 23:36 | 32.42735 | -81.80541 | 6424 ft | 229 kts | 296° |
| 2026-05-07 23:37 | 32.43523 | -81.82185 | 6421 ft | 230 kts | 296° |
| 2026-05-07 23:37 | 32.44316 | -81.83838 | 6422 ft | 232 kts | 296° |
| 2026-05-07 23:37 | 32.45114 | -81.85500 | 6422 ft | 232 kts | 296° |
| 2026-05-07 23:37 | 32.45911 | -81.87164 | 6421 ft | 233 kts | 296° |
| 2026-05-07 23:38 | 32.46710 | -81.88829 | 6421 ft | 232 kts | 296° |
| 2026-05-07 23:38 | 32.47505 | -81.90486 | 6422 ft | 229 kts | 296° |
| 2026-05-07 23:38 | 32.48290 | -81.92119 | 6420 ft | 227 kts | 296° |
| 2026-05-07 23:38 | 32.49065 | -81.93741 | 6441 ft | 226 kts | 296° |
| 2026-05-07 23:39 | 32.49841 | -81.95363 | 6443 ft | 226 kts | 296° |
| 2026-05-07 23:39 | 32.50617 | -81.96981 | 6444 ft | 227 kts | 296° |
| 2026-05-07 23:39 | 32.51403 | -81.98629 | 6444 ft | 230 kts | 296° |
| 2026-05-07 23:39 | 32.52196 | -82.00286 | 6445 ft | 232 kts | 296° |
| 2026-05-07 23:40 | 32.52990 | -82.01951 | 6444 ft | 233 kts | 296° |
| 2026-05-07 23:40 | 32.53791 | -82.03626 | 6445 ft | 233 kts | 296° |
| 2026-05-07 23:40 | 32.54594 | -82.05302 | 6444 ft | 233 kts | 296° |
| 2026-05-07 23:40 | 32.55392 | -82.06980 | 6442 ft | 233 kts | 296° |
| 2026-05-07 23:41 | 32.56188 | -82.08649 | 6441 ft | 233 kts | 296° |
| 2026-05-07 23:41 | 32.56985 | -82.10319 | 6440 ft | 232 kts | 296° |
| 2026-05-07 23:41 | 32.57779 | -82.11985 | 6438 ft | 233 kts | 296° |
| 2026-05-07 23:41 | 32.58564 | -82.13663 | 6421 ft | 233 kts | 295° |
| 2026-05-07 23:42 | 32.59370 | -82.15332 | 6419 ft | 234 kts | 296° |
| 2026-05-07 23:42 | 32.60180 | -82.17006 | 6419 ft | 234 kts | 296° |
| 2026-05-07 23:42 | 32.60975 | -82.18686 | 6420 ft | 234 kts | 295° |
| 2026-05-07 23:42 | 32.61774 | -82.20371 | 6420 ft | 234 kts | 296° |
| 2026-05-07 23:43 | 32.62574 | -82.22053 | 6417 ft | 234 kts | 296° |
| 2026-05-07 23:43 | 32.63376 | -82.23740 | 6417 ft | 234 kts | 296° |
| 2026-05-07 23:43 | 32.64163 | -82.25400 | 6417 ft | 234 kts | 295° |
| 2026-05-07 23:43 | 32.64962 | -82.27085 | 6417 ft | 234 kts | 296° |
| 2026-05-07 23:44 | 32.65764 | -82.28778 | 6420 ft | 235 kts | 295° |
| 2026-05-07 23:44 | 32.66561 | -82.30459 | 6420 ft | 234 kts | 296° |
| 2026-05-07 23:44 | 32.67353 | -82.32146 | 6420 ft | 233 kts | 295° |
| 2026-05-07 23:44 | 32.68151 | -82.33831 | 6421 ft | 234 kts | 296° |
| 2026-05-07 23:45 | 32.68952 | -82.35507 | 6425 ft | 234 kts | 295° |
| 2026-05-07 23:45 | 32.69742 | -82.37174 | 6518 ft | 231 kts | 295° |
| 2026-05-07 23:45 | 32.70526 | -82.38839 | 6520 ft | 232 kts | 295° |
| 2026-05-07 23:45 | 32.71321 | -82.40517 | 6522 ft | 233 kts | 296° |
| 2026-05-07 23:46 | 32.72115 | -82.42197 | 6521 ft | 234 kts | 296° |
| 2026-05-07 23:46 | 32.72912 | -82.43886 | 6521 ft | 234 kts | 296° |
| 2026-05-07 23:46 | 32.73699 | -82.45547 | 6522 ft | 234 kts | 296° |
| 2026-05-07 23:46 | 32.74494 | -82.47234 | 6521 ft | 234 kts | 296° |
| 2026-05-07 23:47 | 32.75289 | -82.48922 | 6521 ft | 234 kts | 296° |
| 2026-05-07 23:47 | 32.76086 | -82.50606 | 6522 ft | 234 kts | 296° |
| 2026-05-07 23:47 | 32.76882 | -82.52297 | 6522 ft | 234 kts | 296° |
| 2026-05-07 23:47 | 32.77678 | -82.53988 | 6521 ft | 234 kts | 296° |
| 2026-05-07 23:48 | 32.78457 | -82.55688 | 6522 ft | 234 kts | 296° |
| 2026-05-07 23:48 | 32.79267 | -82.57369 | 6521 ft | 234 kts | 296° |
| 2026-05-07 23:48 | 32.80068 | -82.59051 | 6522 ft | 234 kts | 296° |
| 2026-05-07 23:48 | 32.80859 | -82.60740 | 6522 ft | 234 kts | 296° |
| 2026-05-07 23:49 | 32.81653 | -82.62431 | 6525 ft | 234 kts | 296° |
| 2026-05-07 23:49 | 32.82448 | -82.64123 | 6525 ft | 234 kts | 296° |
| 2026-05-07 23:49 | 32.83239 | -82.65810 | 6525 ft | 234 kts | 296° |
| 2026-05-07 23:49 | 32.84034 | -82.67499 | 6522 ft | 234 kts | 296° |
| 2026-05-07 23:50 | 32.84827 | -82.69193 | 6524 ft | 234 kts | 296° |
| 2026-05-07 23:50 | 32.85618 | -82.70881 | 6528 ft | 234 kts | 296° |
| 2026-05-07 23:50 | 32.86401 | -82.72553 | 6527 ft | 234 kts | 296° |
| 2026-05-07 23:50 | 32.87205 | -82.74266 | 6527 ft | 234 kts | 296° |
| 2026-05-07 23:51 | 32.87985 | -82.75936 | 6523 ft | 234 kts | 296° |
| 2026-05-07 23:51 | 32.88780 | -82.77629 | 6522 ft | 234 kts | 296° |
| 2026-05-07 23:51 | 32.89574 | -82.79327 | 6519 ft | 235 kts | 296° |
| 2026-05-07 23:51 | 32.90369 | -82.81029 | 6519 ft | 236 kts | 296° |
| 2026-05-07 23:52 | 32.91165 | -82.82731 | 6519 ft | 236 kts | 296° |
| 2026-05-07 23:52 | 32.91963 | -82.84438 | 6520 ft | 236 kts | 296° |
| 2026-05-07 23:52 | 32.92760 | -82.86147 | 6522 ft | 236 kts | 296° |
| 2026-05-07 23:52 | 32.93557 | -82.87856 | 6523 ft | 236 kts | 296° |
| 2026-05-07 23:53 | 32.94353 | -82.89560 | 6526 ft | 236 kts | 296° |
| 2026-05-07 23:53 | 32.95149 | -82.91270 | 6526 ft | 236 kts | 296° |
| 2026-05-07 23:53 | 32.95949 | -82.92983 | 6544 ft | 236 kts | 296° |
| 2026-05-07 23:53 | 32.96742 | -82.94685 | 6544 ft | 235 kts | 296° |
| 2026-05-07 23:54 | 32.97525 | -82.96368 | 6544 ft | 235 kts | 296° |
| 2026-05-07 23:54 | 32.98319 | -82.98069 | 6543 ft | 235 kts | 296° |
| 2026-05-07 23:54 | 32.99110 | -82.99773 | 6543 ft | 235 kts | 296° |
| 2026-05-07 23:54 | 32.99904 | -83.01481 | 6549 ft | 235 kts | 296° |
| 2026-05-07 23:55 | 33.00696 | -83.03185 | 6547 ft | 235 kts | 296° |
| 2026-05-07 23:55 | 33.01487 | -83.04886 | 6547 ft | 235 kts | 296° |
| 2026-05-07 23:55 | 33.02012 | -83.06017 | 6546 ft | 235 kts | 296° |
| 2026-05-07 23:55 | 33.02806 | -83.07728 | 6547 ft | 236 kts | 296° |
| 2026-05-07 23:56 | 33.03599 | -83.09435 | 6550 ft | 236 kts | 296° |
| 2026-05-07 23:56 | 33.04391 | -83.11146 | 6548 ft | 235 kts | 296° |
| 2026-05-07 23:56 | 33.05182 | -83.12854 | 6562 ft | 235 kts | 296° |
| 2026-05-07 23:56 | 33.05972 | -83.14558 | 6563 ft | 235 kts | 296° |
| 2026-05-07 23:57 | 33.06766 | -83.16271 | 6562 ft | 236 kts | 296° |
| 2026-05-07 23:57 | 33.07558 | -83.17983 | 6563 ft | 236 kts | 296° |
| 2026-05-07 23:57 | 33.08353 | -83.19699 | 6563 ft | 236 kts | 296° |
| 2026-05-07 23:57 | 33.09149 | -83.21419 | 6563 ft | 236 kts | 296° |
| 2026-05-07 23:58 | 33.09942 | -83.23139 | 6562 ft | 236 kts | 296° |
| 2026-05-07 23:58 | 33.10737 | -83.24855 | 6563 ft | 236 kts | 296° |
| 2026-05-07 23:58 | 33.11530 | -83.26574 | 6562 ft | 236 kts | 296° |
| 2026-05-07 23:58 | 33.12322 | -83.28292 | 6562 ft | 236 kts | 296° |
| 2026-05-07 23:59 | 33.13113 | -83.30007 | 6562 ft | 236 kts | 296° |
| 2026-05-07 23:59 | 33.13897 | -83.31707 | 6563 ft | 236 kts | 296° |
| 2026-05-07 23:59 | 33.14687 | -83.33417 | 6562 ft | 236 kts | 296° |
| 2026-05-07 23:59 | 33.15480 | -83.35141 | 6562 ft | 236 kts | 296° |
| 2026-05-08 00:00 | 33.16272 | -83.36858 | 6558 ft | 236 kts | 296° |
| 2026-05-08 00:00 | 33.17064 | -83.38581 | 6557 ft | 236 kts | 296° |
| 2026-05-08 00:00 | 33.17852 | -83.40296 | 6557 ft | 236 kts | 296° |
| 2026-05-08 00:00 | 33.18644 | -83.42014 | 6556 ft | 236 kts | 296° |
| 2026-05-08 00:01 | 33.19434 | -83.43731 | 6558 ft | 236 kts | 296° |
| 2026-05-08 00:01 | 33.20222 | -83.45453 | 6549 ft | 236 kts | 296° |
| 2026-05-08 00:01 | 33.21013 | -83.47173 | 6554 ft | 236 kts | 296° |
| 2026-05-08 00:01 | 33.21803 | -83.48892 | 6555 ft | 236 kts | 296° |
| 2026-05-08 00:02 | 33.22591 | -83.50614 | 6557 ft | 236 kts | 296° |
| 2026-05-08 00:02 | 33.23379 | -83.52338 | 6557 ft | 236 kts | 296° |
| 2026-05-08 00:02 | 33.24171 | -83.54058 | 6558 ft | 237 kts | 296° |
| 2026-05-08 00:02 | 33.24962 | -83.55780 | 6558 ft | 237 kts | 296° |
| 2026-05-08 00:03 | 33.25752 | -83.57511 | 6553 ft | 237 kts | 295° |
| 2026-05-08 00:03 | 33.26544 | -83.59245 | 6552 ft | 237 kts | 296° |
| 2026-05-08 00:03 | 33.27336 | -83.60977 | 6558 ft | 237 kts | 296° |
| 2026-05-08 00:03 | 33.28129 | -83.62706 | 6558 ft | 237 kts | 296° |
| 2026-05-08 00:04 | 33.28918 | -83.64438 | 6561 ft | 237 kts | 296° |
| 2026-05-08 00:04 | 33.29710 | -83.66172 | 6561 ft | 238 kts | 296° |
| 2026-05-08 00:04 | 33.30503 | -83.67909 | 6561 ft | 238 kts | 296° |
| 2026-05-08 00:04 | 33.31296 | -83.69644 | 6564 ft | 238 kts | 296° |
| 2026-05-08 00:05 | 33.32088 | -83.71381 | 6570 ft | 238 kts | 296° |
| 2026-05-08 00:05 | 33.32871 | -83.73102 | 6571 ft | 237 kts | 296° |
| 2026-05-08 00:05 | 33.33669 | -83.74849 | 6573 ft | 237 kts | 296° |
| 2026-05-08 00:05 | 33.34457 | -83.76581 | 6582 ft | 238 kts | 295° |
| 2026-05-08 00:06 | 33.35246 | -83.78316 | 6577 ft | 238 kts | 295° |
| 2026-05-08 00:06 | 33.36037 | -83.80056 | 6578 ft | 238 kts | 296° |
| 2026-05-08 00:06 | 33.36829 | -83.81796 | 6579 ft | 238 kts | 296° |
| 2026-05-08 00:06 | 33.37618 | -83.83532 | 6580 ft | 238 kts | 295° |
| 2026-05-08 00:07 | 33.38399 | -83.85250 | 6583 ft | 238 kts | 295° |
| 2026-05-08 00:07 | 33.39188 | -83.86990 | 6589 ft | 238 kts | 295° |
| 2026-05-08 00:07 | 33.39981 | -83.88735 | 6590 ft | 238 kts | 295° |
| 2026-05-08 00:07 | 33.40771 | -83.90477 | 6590 ft | 238 kts | 295° |
| 2026-05-08 00:08 | 33.41558 | -83.92217 | 6593 ft | 238 kts | 295° |
| 2026-05-08 00:08 | 33.42351 | -83.93963 | 6594 ft | 239 kts | 295° |
| 2026-05-08 00:08 | 33.43141 | -83.95710 | 6594 ft | 239 kts | 295° |
| 2026-05-08 00:08 | 33.43935 | -83.97461 | 6595 ft | 239 kts | 295° |
| 2026-05-08 00:09 | 33.44728 | -83.99214 | 6596 ft | 239 kts | 295° |
| 2026-05-08 00:09 | 33.45528 | -84.00958 | 6594 ft | 238 kts | 298° |
| 2026-05-08 00:09 | 33.46795 | -84.02267 | 6582 ft | 249 kts | 327° |
| 2026-05-08 00:09 | 33.48410 | -84.03063 | 6583 ft | 252 kts | 333° |
| 2026-05-08 00:10 | 33.50063 | -84.03787 | 6581 ft | 253 kts | 334° |
| 2026-05-08 00:10 | 33.51720 | -84.04505 | 6585 ft | 254 kts | 334° |
| 2026-05-08 00:10 | 33.53381 | -84.05226 | 6585 ft | 254 kts | 334° |
| 2026-05-08 00:10 | 33.55013 | -84.05932 | 6332 ft | 236 kts | 334° |
| 2026-05-08 00:11 | 33.56537 | -84.06569 | 5068 ft | 231 kts | 335° |
| 2026-05-08 00:11 | 33.58035 | -84.07230 | 4441 ft | 234 kts | 334° |
| 2026-05-08 00:11 | 33.59578 | -84.07954 | 3819 ft | 240 kts | 335° |
| 2026-05-08 00:11 | 33.61127 | -84.08713 | 3212 ft | 239 kts | 333° |
| 2026-05-08 00:12 | 33.62385 | -84.09904 | 3078 ft | 233 kts | 304° |
| 2026-05-08 00:12 | 33.63133 | -84.11587 | 3087 ft | 218 kts | 295° |
| 2026-05-08 00:12 | 33.63736 | -84.13159 | 3081 ft | 197 kts | 294° |
| 2026-05-08 00:12 | 33.64293 | -84.14611 | 3080 ft | 188 kts | 294° |
| 2026-05-08 00:13 | 33.64836 | -84.16023 | 3082 ft | 186 kts | 294° |
| 2026-05-08 00:13 | 33.65380 | -84.17434 | 3082 ft | 187 kts | 294° |
| 2026-05-08 00:13 | 33.65928 | -84.18850 | 3084 ft | 188 kts | 294° |
| 2026-05-08 00:13 | 33.66474 | -84.20271 | 3093 ft | 186 kts | 294° |
| 2026-05-08 00:14 | 33.66798 | -84.21742 | 3087 ft | 186 kts | 266° |
| 2026-05-08 00:14 | 33.66457 | -84.23246 | 3095 ft | 188 kts | 254° |
| 2026-05-08 00:14 | 33.66033 | -84.24740 | 3098 ft | 190 kts | 254° |
| 2026-05-08 00:14 | 33.65615 | -84.26245 | 3103 ft | 189 kts | 254° |
| 2026-05-08 00:15 | 33.65208 | -84.27741 | 3101 ft | 189 kts | 255° |
| 2026-05-08 00:15 | 33.64789 | -84.29216 | 3096 ft | 190 kts | 254° |
| 2026-05-08 00:15 | 33.64454 | -84.30781 | 3127 ft | 191 kts | 265° |
| 2026-05-08 00:15 | 33.64326 | -84.32375 | 2965 ft | 192 kts | 268° |
| 2026-05-08 00:16 | 33.64290 | -84.33940 | 2734 ft | 177 kts | 273° |
| 2026-05-08 00:16 | 33.64349 | -84.35255 | 2554 ft | 146 kts | 277° |
| 2026-05-08 00:16 | 33.64465 | -84.36430 | 2203 ft | 140 kts | 279° |
| 2026-05-08 00:16 | 33.64585 | -84.37547 | 1967 ft | 129 kts | 280° |
| 2026-05-08 00:17 | 33.64667 | -84.38592 | 1678 ft | 123 kts | 279° |
| 2026-05-08 00:17 | 33.64774 | -84.39603 | 1448 ft | 117 kts | 279° |
| 2026-05-08 00:17 | 33.64901 | -84.40545 | 1161 ft | 113 kts | 281° |
| 2026-05-08 00:17 | 33.64938 | -84.41439 | 1007 ft | 99 kts | 276° |
| 2026-05-08 00:18 | 33.64949 | -84.42038 | 1001 ft | 54 kts | 267° |
| 2026-05-08 00:18 | 33.64957 | -84.42268 | 1001 ft | 11 kts | 289° |
| 2026-05-08 00:18 | 33.65001 | -84.42335 | 1001 ft | 0 kts | 5° |
| 2026-05-08 00:18 | 33.65023 | -84.42332 | 1001 ft | 11 kts | 11° |
| 2026-05-08 00:19 | 33.65045 | -84.42320 | 1001 ft | 0 kts | 27° |
| 2026-05-08 00:19 | 33.65061 | -84.42296 | 1001 ft | 8 kts | 68° |
| 2026-05-08 00:19 | 33.65063 | -84.42284 | 1001 ft | 0 kts | 91° |
| 2026-05-08 00:19 | 33.65063 | -84.42273 | 1001 ft | 5 kts | 91° |
| 2026-05-08 00:20 | 33.65087 | -84.42221 | 1000 ft | 0 kts | 30° |
| 2026-05-08 00:20 | 33.65098 | -84.42216 | 1000 ft | 8 kts | 7° |
| 2026-05-08 00:20 | 33.65140 | -84.42222 | 1000 ft | 14 kts | 328° |
| 2026-05-08 00:20 | 33.65204 | -84.42243 | 1000 ft | 6 kts | 1° |
| 2026-05-08 00:21 | 33.65234 | -84.42243 | 1000 ft | 0 kts | 2° |